Aérodrome :
LOGIN :

S'inscrire | Disclaimer

   EN    FR    IT 

 










Légende :    VFR   VFR Marginal   IFR   IFR Intensif   IFR Très Intensif
Visi : 
Plafond : 
>= 8 km
>= 3000ft
5 à 8 km
1000 à 3000 ft
1500m à 5 km
500 à 1000 ft
800 à 1500m
200 à 500 ft
< 800m
< 200 ft
Symboles :   Orages  Brouillard  Fortes neiges  Fortes précipitations  Vent > 20 kt
SIGMETs :   Divers  Orages  Givrage  Turbulence  Onde Orograph.  Cendres Volcan.







- Altitude de l'aérodrome : 1187 ft


LIBV - Gioia del Colle Bari

DERNIER METAR :
  • 131755Z 28002KT 8000 -RA BKN040 09/09 Q1018 RMK BKN VIS MIN 8000 WIND THR32 /////KT WIND THR14 29002KT BLU

METARs EXPIRÉS :
  • 131655Z 01002KT 5000 -RA BR FEW020 BKN030 09/09 Q1017 RMK OVC VIS MIN 5000 WIND THR32 /////KT WIND THR14 36002KT WHT
  • 131555Z 06002KT 5000 -RA BR FEW020 BKN030 10/09 Q1017 RMK OVC VIS MIN 5000 WIND THR32 /////KT WIND THR14 03002KT WHT

TAF TAF LIBV
Valide du 13 à 18h jusqu'au 14 à 03h UTC


131700Z 1318/1403 18010KT 9999 SCT050
Pas de NOTAMs connus pour ce terrain.



MET'MAP, la Météo Aéronautique d'un coup d'oeil ! - Copyright ORBIFLY Décembre 2007 - Disclaimer

ORBIFLY MET'MAP TEAM :

Programmation & Développement : Alexandra Zaïnal
Conception & Développement : Baudouin d'Aumeries
Co-Programmation & Développement : Marc-Olivier Méhu
Soutien technique & logistique : Manuel Goepfert

Contact : metmap@orbifly.com




SOURCES & CREDITS :

   NOAA